Time;durP1;ratioP1;P1;durP2;ratioP2;P2;SDS_P1;SDS_P2;PMS_P1;PMS_P2;Temp;Humidity;BMP_temperature;BMP_pressure;BME280_temperature;BME280_humidity;BME280_pressure;Samples;Min_cycle;Max_cycle;Signal;HPM_P1;HPM_P2
2022/07/11 00:01:47;;;;;;;4.67;3.93;;;19.30;69.40;;;;;;5065456;28;20561;-46
2022/07/11 00:04:14;;;;;;;3.50;3.07;;;19.30;69.50;;;;;;5062218;28;20916;-47
2022/07/11 00:06:41;;;;;;;3.83;3.50;;;19.30;69.40;;;;;;5064565;28;20489;-46
2022/07/11 00:09:08;;;;;;;4.00;3.30;;;19.30;69.50;;;;;;5065177;28;20454;-47
2022/07/11 00:11:35;;;;;;;3.43;3.13;;;19.30;69.60;;;;;;5050318;28;20460;-47
2022/07/11 00:14:02;;;;;;;3.83;3.53;;;19.30;69.70;;;;;;5049886;28;20458;-47
2022/07/11 00:16:28;;;;;;;4.93;3.20;;;19.30;69.70;;;;;;5064799;28;20460;-47
2022/07/11 00:18:55;;;;;;;5.63;3.40;;;19.30;69.40;;;;;;5048802;28;20539;-47
2022/07/11 00:21:22;;;;;;;5.10;3.10;;;19.40;69.30;;;;;;5066107;28;20457;-47
2022/07/11 00:23:49;;;;;;;4.73;3.87;;;19.30;69.30;;;;;;5051290;28;20545;-47
2022/07/11 00:26:16;;;;;;;4.47;3.30;;;19.30;69.40;;;;;;5063540;28;20467;-47
2022/07/11 00:28:42;;;;;;;4.83;3.30;;;19.30;69.60;;;;;;5045350;28;20450;-49
2022/07/11 00:31:10;;;;;;;4.03;3.47;;;19.30;69.80;;;;;;5063061;28;20472;-49
2022/07/11 00:33:37;;;;;;;3.63;3.30;;;19.30;69.90;;;;;;5062443;28;20490;-49
2022/07/11 00:36:05;;;;;;;3.37;3.07;;;19.30;70.00;;;;;;5048982;28;20950;-49
2022/07/11 00:38:32;;;;;;;5.17;3.53;;;19.30;70.10;;;;;;5060854;28;20485;-49
2022/07/11 00:40:59;;;;;;;6.77;3.00;;;19.30;70.20;;;;;;5046490;28;20464;-49
2022/07/11 00:43:32;;;;;;;4.23;3.13;;;19.30;70.20;;;;;;5061352;28;20496;-49
2022/07/11 00:46:00;;;;;;;5.93;2.93;;;19.30;70.20;;;;;;5059005;28;20497;-49
2022/07/11 00:48:27;;;;;;;4.83;4.40;;;19.30;70.30;;;;;;5063380;28;20552;-49
2022/07/11 00:50:55;;;;;;;4.10;2.73;;;19.30;70.30;;;;;;5064529;28;20442;-49
2022/07/11 00:53:22;;;;;;;3.47;2.97;;;19.30;70.30;;;;;;5047994;28;20468;-49
2022/07/11 00:55:52;;;;;;;3.23;2.60;;;19.30;70.30;;;;;;5065512;28;20465;-47
2022/07/11 00:58:19;;;;;;;3.13;2.60;;;19.30;70.30;;;;;;5053494;28;20489;-47
2022/07/11 01:00:46;;;;;;;6.03;3.50;;;19.30;70.30;;;;;;5068863;28;20914;-47
2022/07/11 01:03:14;;;;;;;4.30;2.93;;;19.30;70.40;;;;;;5069490;28;20453;-47
2022/07/11 01:05:41;;;;;;;3.53;2.73;;;19.30;70.40;;;;;;5065988;28;20456;-47
2022/07/11 01:08:08;;;;;;;3.13;2.93;;;19.20;70.50;;;;;;5053657;28;20824;-47
2022/07/11 01:10:35;;;;;;;4.90;3.13;;;19.30;70.50;;;;;;5067771;28;21035;-47
2022/07/11 01:13:02;;;;;;;3.50;3.20;;;19.20;70.50;;;;;;5049135;28;20501;-47
2022/07/11 01:15:29;;;;;;;3.27;3.07;;;19.20;70.50;;;;;;5066132;28;20973;-47
2022/07/11 01:17:56;;;;;;;3.40;3.10;;;19.30;70.30;;;;;;5059472;28;21297;-47
2022/07/11 01:20:23;;;;;;;3.13;2.83;;;19.30;70.40;;;;;;5065173;28;20464;-47
2022/07/11 01:22:57;;;;;;;3.90;2.80;;;19.20;70.60;;;;;;5065247;28;20553;-47
2022/07/11 01:25:30;;;;;;;3.70;3.40;;;19.20;70.70;;;;;;5053841;28;20457;-47
2022/07/11 01:28:04;;;;;;;3.10;2.67;;;19.30;70.80;;;;;;5066514;28;20518;-47
2022/07/11 01:30:32;;;;;;;4.77;3.60;;;19.20;70.70;;;;;;5062618;28;20461;-47
2022/07/11 01:32:59;;;;;;;6.27;3.53;;;19.20;70.80;;;;;;5034690;28;20497;-47
2022/07/11 01:35:28;;;;;;;5.40;3.33;;;19.20;70.90;;;;;;5051641;28;20992;-47
2022/07/11 01:37:55;;;;;;;4.10;3.70;;;19.20;71.00;;;;;;5063667;28;20486;-47
2022/07/11 01:40:29;;;;;;;5.07;3.40;;;19.20;71.10;;;;;;5048821;28;20484;-47
2022/07/11 01:42:55;;;;;;;3.90;3.60;;;19.20;70.90;;;;;;5064266;28;20538;-47
2022/07/11 01:45:25;;;;;;;3.53;3.00;;;19.20;70.90;;;;;;5063448;28;20449;-47
2022/07/11 01:47:52;;;;;;;5.17;3.43;;;19.30;70.70;;;;;;5052440;28;20473;-47
2022/07/11 01:50:19;;;;;;;5.27;4.77;;;19.30;70.60;;;;;;5052245;28;20473;-47
2022/07/11 01:52:45;;;;;;;3.43;3.13;;;19.30;70.60;;;;;;5050020;28;20559;-47
2022/07/11 01:55:13;;;;;;;4.93;4.03;;;19.30;70.70;;;;;;5053277;28;20990;-47
2022/07/11 01:57:40;;;;;;;4.30;3.17;;;19.30;70.70;;;;;;5066002;28;20489;-47
2022/07/11 02:00:10;;;;;;;5.00;3.40;;;19.30;70.80;;;;;;5063557;28;20478;-47
2022/07/11 02:02:37;;;;;;;3.60;3.30;;;19.20;70.90;;;;;;5065565;28;20453;-47
2022/07/11 02:05:05;;;;;;;3.87;3.00;;;19.20;71.00;;;;;;5049514;28;20471;-47
2022/07/11 02:08:14;;;;;;;3.80;3.50;;;19.20;71.20;;;;;;5058790;28;20489;-47
2022/07/11 02:10:22;;;;;;;4.33;3.73;;;19.20;71.20;;;;;;5042314;28;20463;-47
2022/07/11 02:12:48;;;;;;;7.00;3.23;;;19.20;71.30;;;;;;5064589;28;20462;-47
2022/07/11 02:15:15;;;;;;;6.03;3.40;;;19.20;71.20;;;;;;5066358;28;20469;-47
2022/07/11 02:17:42;;;;;;;4.90;3.30;;;19.20;71.20;;;;;;5052361;28;20520;-47
2022/07/11 02:20:09;;;;;;;13.83;4.13;;;19.20;71.30;;;;;;5062240;28;20921;-47
2022/07/11 02:22:43;;;;;;;4.00;3.07;;;19.20;71.40;;;;;;5061864;28;20867;-47
2022/07/11 02:25:10;;;;;;;3.87;3.07;;;19.20;71.50;;;;;;5061713;28;20481;-47
2022/07/11 02:27:36;;;;;;;4.63;3.30;;;19.20;71.70;;;;;;5062589;28;20973;-46
2022/07/11 02:30:04;;;;;;;3.93;3.47;;;19.20;71.70;;;;;;5048973;28;20465;-46
2022/07/11 02:32:31;;;;;;;6.80;3.00;;;19.10;71.70;;;;;;5060878;28;20460;-46
2022/07/11 02:34:58;;;;;;;3.73;3.43;;;19.10;71.60;;;;;;5045448;28;20457;-46
2022/07/11 02:37:25;;;;;;;4.57;2.87;;;19.10;71.60;;;;;;5055791;28;20468;-47
2022/07/11 02:39:51;;;;;;;4.93;3.60;;;19.10;71.70;;;;;;5030625;28;20454;-46
2022/07/11 02:42:18;;;;;;;4.23;3.13;;;19.20;71.70;;;;;;5059736;28;20470;-46
2022/07/11 02:44:45;;;;;;;3.83;2.90;;;19.20;71.70;;;;;;5059348;28;20470;-46
2022/07/11 02:47:14;;;;;;;4.10;3.67;;;19.20;71.70;;;;;;5042014;28;20457;-46
2022/07/11 02:49:41;;;;;;;4.87;3.30;;;19.10;71.80;;;;;;5058204;28;20458;-46
2022/07/11 02:52:08;;;;;;;3.37;2.90;;;19.10;71.90;;;;;;5057973;28;20461;-47
2022/07/11 02:54:35;;;;;;;4.10;3.10;;;19.20;71.80;;;;;;5028565;28;21477;-47
2022/07/11 02:57:02;;;;;;;3.07;2.87;;;19.20;71.90;;;;;;5057591;28;20951;-47
2022/07/11 02:59:28;;;;;;;3.73;3.43;;;19.20;71.80;;;;;;5058716;28;20580;-47
2022/07/11 03:01:55;;;;;;;3.80;3.40;;;19.10;71.90;;;;;;5060777;28;20458;-48
2022/07/11 03:04:22;;;;;;;4.23;3.20;;;19.20;71.70;;;;;;5057199;28;20465;-47
2022/07/11 03:06:49;;;;;;;3.00;2.50;;;19.20;71.50;;;;;;5040161;28;20453;-47
2022/07/11 03:09:16;;;;;;;3.17;2.70;;;19.20;71.50;;;;;;5060701;28;20472;-48
2022/07/11 03:11:43;;;;;;;5.33;3.17;;;19.20;71.40;;;;;;5058447;28;20497;-47
2022/07/11 03:14:10;;;;;;;3.23;2.93;;;19.20;71.40;;;;;;5058164;28;20462;-47
2022/07/11 03:16:36;;;;;;;5.40;3.30;;;19.20;71.40;;;;;;5059913;28;20470;-47
2022/07/11 03:19:03;;;;;;;5.47;3.20;;;19.20;71.40;;;;;;5041588;28;20494;-48
2022/07/11 03:21:30;;;;;;;3.10;2.80;;;19.20;71.40;;;;;;5059050;28;20562;-47
2022/07/11 03:23:57;;;;;;;3.30;3.00;;;19.20;71.20;;;;;;5043376;28;20881;-48
2022/07/11 03:26:23;;;;;;;3.53;2.90;;;19.20;71.30;;;;;;5059996;28;20986;-47
2022/07/11 03:28:50;;;;;;;2.67;2.47;;;19.20;71.40;;;;;;5056962;28;20468;-48
2022/07/11 03:31:18;;;;;;;6.00;3.20;;;19.20;71.50;;;;;;5059195;28;20474;-48
2022/07/11 03:33:45;;;;;;;4.27;2.97;;;19.20;71.60;;;;;;5056399;28;20492;-48
2022/07/11 03:36:12;;;;;;;5.83;2.93;;;19.20;71.60;;;;;;5041492;28;20455;-47
2022/07/11 03:38:39;;;;;;;3.50;2.93;;;19.10;71.60;;;;;;5048019;28;20498;-47
2022/07/11 03:41:06;;;;;;;4.20;3.60;;;19.20;71.50;;;;;;5060524;28;20477;-48
2022/07/11 03:43:32;;;;;;;4.93;2.60;;;19.20;71.50;;;;;;5059124;28;20833;-47
2022/07/11 03:45:59;;;;;;;4.43;3.00;;;19.20;71.50;;;;;;5060506;28;20471;-47
2022/07/11 03:48:26;;;;;;;3.20;2.67;;;19.10;71.70;;;;;;5042689;28;20910;-47
2022/07/11 03:50:53;;;;;;;7.17;3.10;;;19.10;71.70;;;;;;5058080;28;20607;-48
2022/07/11 03:53:20;;;;;;;6.73;2.97;;;19.10;71.70;;;;;;5040236;28;20836;-48
2022/07/11 03:55:47;;;;;;;2.83;2.53;;;19.10;71.70;;;;;;5057802;28;20454;-47
2022/07/11 03:58:14;;;;;;;2.50;2.33;;;19.10;71.60;;;;;;5056377;28;20962;-47
2022/07/11 04:00:41;;;;;;;4.40;3.07;;;19.10;71.60;;;;;;5057232;28;20483;-47
2022/07/11 04:03:08;;;;;;;4.17;2.80;;;19.10;71.60;;;;;;5041076;28;20507;-47
2022/07/11 04:05:35;;;;;;;3.70;2.50;;;19.10;71.60;;;;;;5061659;28;20461;-47
2022/07/11 04:08:02;;;;;;;3.70;2.73;;;19.10;71.70;;;;;;5047771;28;20456;-48
2022/07/11 04:10:29;;;;;;;2.73;2.40;;;19.10;71.70;;;;;;5064617;28;20944;-47
2022/07/11 04:12:55;;;;;;;4.53;2.80;;;19.10;71.80;;;;;;5065606;28;20467;-47
2022/07/11 04:15:22;;;;;;;5.47;2.50;;;19.20;71.70;;;;;;5060786;28;20466;-47
2022/07/11 04:17:49;;;;;;;5.10;2.60;;;19.20;71.60;;;;;;5059062;28;20475;-47
2022/07/11 04:20:16;;;;;;;3.60;2.60;;;19.20;71.60;;;;;;5064604;28;20805;-47
2022/07/11 04:22:42;;;;;;;3.77;3.00;;;19.20;71.60;;;;;;5060241;28;20464;-47
2022/07/11 04:25:09;;;;;;;5.07;2.97;;;19.20;71.60;;;;;;5060650;28;20635;-47
2022/07/11 04:27:36;;;;;;;5.27;3.87;;;19.20;71.60;;;;;;5060309;28;20465;-47
2022/07/11 04:30:07;;;;;;;5.33;2.67;;;19.20;71.70;;;;;;5064242;28;20465;-47
2022/07/11 04:32:35;;;;;;;3.00;2.70;;;19.20;71.80;;;;;;5062523;28;20543;-47
2022/07/11 04:35:06;;;;;;;3.00;2.40;;;19.20;71.90;;;;;;5061113;28;20489;-48
2022/07/11 04:37:32;;;;;;;4.30;2.80;;;19.20;71.90;;;;;;5056904;28;20454;-47
2022/07/11 04:39:59;;;;;;;4.43;2.90;;;19.20;72.10;;;;;;5061791;28;20495;-48
2022/07/11 04:42:26;;;;;;;5.43;2.63;;;19.20;72.00;;;;;;5063324;28;20442;-47
2022/07/11 04:44:53;;;;;;;3.80;2.70;;;19.20;72.00;;;;;;5045458;28;20938;-47
2022/07/11 04:47:19;;;;;;;3.17;2.67;;;19.20;72.00;;;;;;5061987;28;20449;-48
2022/07/11 04:49:46;;;;;;;3.57;3.27;;;19.30;72.10;;;;;;5044033;28;20462;-47
2022/07/11 04:52:14;;;;;;;3.00;2.57;;;19.30;71.90;;;;;;5040718;28;20467;-47
2022/07/11 04:54:40;;;;;;;8.33;2.90;;;19.30;71.70;;;;;;5057298;28;20462;-48
2022/07/11 04:57:07;;;;;;;3.40;2.50;;;19.30;71.40;;;;;;5062868;28;20555;-48
2022/07/11 04:59:34;;;;;;;4.40;2.60;;;19.40;71.40;;;;;;5059658;28;20490;-47
2022/07/11 05:02:01;;;;;;;2.57;2.37;;;19.40;71.20;;;;;;5058168;28;20465;-48
2022/07/11 05:04:28;;;;;;;4.63;2.60;;;19.40;71.20;;;;;;5061293;28;20449;-47
2022/07/11 05:06:54;;;;;;;2.63;2.27;;;19.40;71.30;;;;;;5045113;28;20457;-48
2022/07/11 05:09:21;;;;;;;3.20;2.47;;;19.40;71.40;;;;;;5047316;28;20465;-47
2022/07/11 05:11:48;;;;;;;2.37;2.17;;;19.40;71.40;;;;;;5038114;28;20454;-47
2022/07/11 05:14:14;;;;;;;2.70;2.30;;;19.50;71.10;;;;;;5057428;28;20827;-48
2022/07/11 05:16:41;;;;;;;2.30;2.10;;;19.50;71.00;;;;;;5061545;28;20459;-47
2022/07/11 05:19:08;;;;;;;2.73;2.53;;;19.60;70.70;;;;;;5029187;28;20525;-47
2022/07/11 05:21:35;;;;;;;2.53;2.33;;;19.60;70.30;;;;;;5056427;28;20470;-47
2022/07/11 05:24:02;;;;;;;4.30;2.33;;;19.70;69.70;;;;;;5046400;28;20453;-47
2022/07/11 05:26:28;;;;;;;2.93;2.50;;;19.70;69.50;;;;;;5060828;28;20844;-47
2022/07/11 05:28:55;;;;;;;2.60;2.40;;;19.70;69.70;;;;;;5046764;28;20591;-47
2022/07/11 05:31:22;;;;;;;2.60;2.40;;;19.70;69.80;;;;;;5046990;28;20471;-47
2022/07/11 05:33:49;;;;;;;3.07;2.60;;;19.70;69.90;;;;;;5064081;28;20493;-48
2022/07/11 05:36:16;;;;;;;3.10;2.83;;;19.70;69.70;;;;;;5060392;28;20470;-48
2022/07/11 05:38:42;;;;;;;2.50;2.20;;;19.70;69.80;;;;;;5045366;28;20481;-48
2022/07/11 05:41:09;;;;;;;2.67;2.47;;;19.70;70.00;;;;;;5051577;28;20450;-47
2022/07/11 05:43:36;;;;;;;6.60;2.50;;;19.70;69.90;;;;;;5060658;28;20468;-47
2022/07/11 05:46:06;;;;;;;5.53;2.43;;;19.70;70.00;;;;;;5057805;28;20454;-48
2022/07/11 05:48:33;;;;;;;3.40;2.60;;;19.70;69.80;;;;;;5055864;28;20458;-47
2022/07/11 05:50:59;;;;;;;4.70;2.70;;;19.80;69.90;;;;;;5059332;28;20454;-46
2022/07/11 05:53:29;;;;;;;2.87;2.33;;;19.80;69.90;;;;;;5033764;28;20449;-47
2022/07/11 05:55:56;;;;;;;3.60;2.60;;;19.80;69.80;;;;;;5063110;28;20468;-47
2022/07/11 05:58:23;;;;;;;3.00;2.20;;;19.80;69.80;;;;;;5063093;28;20467;-47
2022/07/11 06:00:49;;;;;;;4.83;2.70;;;19.80;70.10;;;;;;5043778;28;20484;-47
2022/07/11 06:03:16;;;;;;;2.70;2.00;;;19.80;70.50;;;;;;5057622;28;20485;-47
2022/07/11 06:05:43;;;;;;;6.03;2.70;;;19.90;70.30;;;;;;5043714;28;20462;-47
2022/07/11 06:10:56;;;;;;;3.97;2.83;;;20.00;69.80;;;;;;5066719;28;20466;-47
2022/07/11 06:13:22;;;;;;;4.60;3.27;;;20.00;70.00;;;;;;5054621;28;21738;-47
2022/07/11 06:15:49;;;;;;;6.73;2.77;;;20.00;70.10;;;;;;5045453;28;20853;-47
2022/07/11 06:18:16;;;;;;;8.20;3.30;;;20.00;70.20;;;;;;5056005;28;20825;-47
2022/07/11 06:20:43;;;;;;;4.80;3.10;;;20.00;70.00;;;;;;5055675;28;20990;-47
2022/07/11 06:23:10;;;;;;;3.73;2.97;;;20.00;69.90;;;;;;5058901;28;20484;-47
2022/07/11 06:25:37;;;;;;;3.53;3.23;;;20.00;70.00;;;;;;5055519;28;20783;-47
2022/07/11 06:28:04;;;;;;;3.57;3.00;;;20.10;70.00;;;;;;5043908;28;20453;-47
2022/07/11 06:30:31;;;;;;;5.70;3.30;;;20.10;69.90;;;;;;5060354;28;20472;-48
2022/07/11 06:32:58;;;;;;;3.77;2.93;;;20.20;69.30;;;;;;5055284;28;20472;-47
2022/07/11 06:35:25;;;;;;;5.30;3.43;;;20.20;69.20;;;;;;5064034;28;20469;-47
2022/07/11 06:37:52;;;;;;;5.00;3.50;;;20.30;69.20;;;;;;5060003;28;20546;-47
2022/07/11 06:40:19;;;;;;;5.40;3.40;;;20.30;68.70;;;;;;5046434;28;20515;-47
2022/07/11 06:42:46;;;;;;;3.80;3.40;;;20.40;68.60;;;;;;5061476;28;20444;-47
2022/07/11 06:45:12;;;;;;;3.10;2.80;;;20.30;68.80;;;;;;5044703;28;20442;-47
2022/07/11 06:47:39;;;;;;;3.80;3.00;;;20.30;69.10;;;;;;5059593;28;20476;-47
2022/07/11 06:50:07;;;;;;;3.87;2.93;;;20.30;69.20;;;;;;5058139;28;20461;-46
2022/07/11 06:52:34;;;;;;;5.40;3.00;;;20.40;68.60;;;;;;5056869;28;20457;-47
2022/07/11 06:55:01;;;;;;;4.20;3.20;;;20.50;68.20;;;;;;5059705;28;20529;-47
2022/07/11 06:57:28;;;;;;;4.30;3.33;;;20.50;68.30;;;;;;5062401;28;20459;-47
2022/07/11 06:59:54;;;;;;;10.10;3.47;;;20.50;68.30;;;;;;5065368;28;20485;-47
2022/07/11 07:02:26;;;;;;;5.47;3.30;;;20.40;68.70;;;;;;5061630;28;20463;-47
2022/07/11 07:04:52;;;;;;;4.00;2.93;;;20.50;68.50;;;;;;5061746;28;20458;-47
2022/07/11 07:07:19;;;;;;;5.80;2.70;;;20.50;68.40;;;;;;5058591;28;20475;-47
2022/07/11 07:09:46;;;;;;;3.30;2.80;;;20.60;68.30;;;;;;5058448;28;20467;-47
2022/07/11 07:12:13;;;;;;;3.87;3.20;;;20.60;68.30;;;;;;5060423;28;20458;-47
2022/07/11 07:14:41;;;;;;;3.83;2.80;;;20.60;68.50;;;;;;5058051;28;20453;-46
2022/07/11 07:17:07;;;;;;;3.63;2.73;;;20.70;68.30;;;;;;5045391;28;20468;-47
2022/07/11 07:19:34;;;;;;;3.27;3.00;;;20.70;68.20;;;;;;5055717;28;20490;-47
2022/07/11 07:22:01;;;;;;;3.60;2.60;;;20.70;68.00;;;;;;5056415;28;20450;-47
2022/07/11 07:24:28;;;;;;;3.10;2.80;;;20.70;67.50;;;;;;5046842;28;20839;-47
2022/07/11 07:26:54;;;;;;;5.00;3.83;;;20.70;67.50;;;;;;5040671;28;21071;-47
2022/07/11 07:29:21;;;;;;;3.83;3.23;;;20.70;67.60;;;;;;5043390;28;20469;-47
2022/07/11 07:31:49;;;;;;;6.57;3.90;;;20.80;67.70;;;;;;5055167;28;20462;-47
2022/07/11 07:34:15;;;;;;;5.80;3.97;;;20.80;67.70;;;;;;5035640;28;21049;-47
2022/07/11 07:36:42;;;;;;;5.07;4.57;;;20.80;67.40;;;;;;5041001;28;20465;-47
2022/07/11 07:39:09;;;;;;;6.57;3.60;;;20.80;67.20;;;;;;5055908;28;20930;-47
2022/07/11 07:41:36;;;;;;;7.43;5.63;;;20.80;67.50;;;;;;5052778;28;20446;-47
2022/07/11 07:44:03;;;;;;;9.83;6.43;;;20.90;67.20;;;;;;5041440;28;20464;-47
2022/07/11 07:46:29;;;;;;;8.60;7.70;;;20.90;67.20;;;;;;5035356;28;20486;-47
2022/07/11 07:48:56;;;;;;;7.87;6.53;;;20.90;66.90;;;;;;5049319;28;20556;-46
2022/07/11 07:51:23;;;;;;;8.90;7.30;;;21.00;66.90;;;;;;5057699;28;20969;-47
2022/07/11 07:53:50;;;;;;;7.77;5.90;;;21.00;66.70;;;;;;5051046;28;20465;-47
2022/07/11 07:56:23;;;;;;;8.13;6.00;;;21.00;66.90;;;;;;5039859;28;20510;-47
2022/07/11 07:58:51;;;;;;;8.23;6.60;;;21.10;66.60;;;;;;5052582;28;20631;-47
2022/07/11 08:01:36;;;;;;;8.33;7.10;;;21.10;66.70;;;;;;5053096;28;20479;-48
2022/07/11 08:04:09;;;;;;;10.00;7.47;;;21.10;66.40;;;;;;5055144;28;20453;-47
2022/07/11 08:06:37;;;;;;;12.33;7.60;;;21.10;66.10;;;;;;5054348;28;20857;-48
2022/07/11 08:09:05;;;;;;;8.90;6.70;;;21.20;66.10;;;;;;5034327;28;20465;-47
2022/07/11 08:11:33;;;;;;;8.30;6.80;;;21.10;66.30;;;;;;5041307;28;20608;-47
2022/07/11 08:14:01;;;;;;;9.90;6.83;;;21.10;66.50;;;;;;5051967;28;20466;-47
2022/07/11 08:16:28;;;;;;;10.30;6.83;;;21.10;66.50;;;;;;5055304;28;20868;-47
2022/07/11 08:18:57;;;;;;;9.83;7.20;;;21.10;66.70;;;;;;5037108;28;20494;-47
2022/07/11 08:21:25;;;;;;;8.00;7.20;;;21.10;66.50;;;;;;5051023;28;20469;-47
2022/07/11 08:23:51;;;;;;;8.40;6.50;;;21.10;66.40;;;;;;5038471;28;20552;-47
2022/07/11 08:26:18;;;;;;;10.40;6.33;;;21.00;66.90;;;;;;5042153;28;20457;-47
2022/07/11 08:28:45;;;;;;;5.53;4.90;;;21.00;67.10;;;;;;5044315;28;20836;-47
2022/07/11 08:31:12;;;;;;;5.10;4.60;;;21.00;66.40;;;;;;5047356;28;20458;-48
2022/07/11 08:33:39;;;;;;;5.83;4.17;;;21.00;66.40;;;;;;5040641;28;20466;-47
2022/07/11 08:36:06;;;;;;;4.93;4.47;;;21.00;66.10;;;;;;5048307;28;20461;-47
2022/07/11 08:38:33;;;;;;;5.63;4.53;;;21.00;65.90;;;;;;5053135;28;20552;-48
2022/07/11 08:41:00;;;;;;;5.13;4.47;;;21.00;65.80;;;;;;5044657;28;20485;-48
2022/07/11 08:43:30;;;;;;;4.17;3.77;;;21.00;65.90;;;;;;5058450;28;20701;-47
2022/07/11 08:45:59;;;;;;;5.40;4.10;;;21.00;65.80;;;;;;5037751;28;20849;-48
2022/07/11 08:48:27;;;;;;;4.80;4.20;;;21.00;65.60;;;;;;5039807;28;20959;-48
2022/07/11 08:50:55;;;;;;;4.17;3.77;;;21.00;65.80;;;;;;5040531;28;20465;-48
2022/07/11 08:53:21;;;;;;;4.53;3.60;;;21.10;65.30;;;;;;5063891;28;20655;-48
2022/07/11 08:55:48;;;;;;;4.27;3.80;;;21.10;65.50;;;;;;5063687;28;20451;-48
2022/07/11 08:58:17;;;;;;;4.30;3.90;;;21.10;65.40;;;;;;5048467;28;20481;-48
2022/07/11 09:00:44;;;;;;;4.10;3.63;;;21.10;65.10;;;;;;5056699;28;20504;-48
2022/07/11 09:03:15;;;;;;;4.60;4.17;;;21.10;65.10;;;;;;5069133;28;20458;-48
2022/07/11 09:05:44;;;;;;;3.77;3.00;;;21.20;64.50;;;;;;5069196;28;20580;-48
2022/07/11 09:08:11;;;;;;;6.93;3.77;;;21.20;64.30;;;;;;5066419;28;21957;-48
2022/07/11 09:10:40;;;;;;;3.37;3.00;;;21.20;64.50;;;;;;5068813;28;20470;-48
2022/07/11 09:13:08;;;;;;;4.50;4.10;;;21.20;64.70;;;;;;5069189;28;20463;-48
2022/07/11 09:15:36;;;;;;;4.63;4.13;;;21.20;64.80;;;;;;5067494;28;20449;-48
2022/07/11 09:18:05;;;;;;;4.53;3.90;;;21.20;64.50;;;;;;5048027;28;20868;-48
2022/07/11 09:26:23;;;;;;;5.43;4.10;;;21.30;65.20;;;;;;5065954;28;20550;-47
2022/07/11 09:29:08;;;;;;;4.73;4.07;;;21.20;65.40;;;;;;5066692;28;20448;-48
2022/07/11 09:31:38;;;;;;;7.47;4.90;;;21.30;65.20;;;;;;5068209;28;20512;-48
2022/07/11 09:34:16;;;;;;;4.20;3.80;;;21.30;65.20;;;;;;5066320;28;21038;-46
2022/07/11 09:36:48;;;;;;;4.07;3.67;;;21.30;65.40;;;;;;5066899;28;20453;-47
2022/07/11 09:39:18;;;;;;;4.20;3.67;;;21.40;64.30;;;;;;5066661;28;20466;-47
2022/07/11 09:41:49;;;;;;;4.03;3.33;;;21.50;63.90;;;;;;5058884;28;20442;-48
2022/07/11 09:44:22;;;;;;;3.47;3.17;;;21.50;64.10;;;;;;5068550;28;20548;-47
2022/07/11 09:46:51;;;;;;;3.60;3.30;;;21.60;63.40;;;;;;5064329;28;20458;-47
2022/07/11 09:49:33;;;;;;;4.73;3.80;;;21.60;63.30;;;;;;5048958;28;20817;-49
2022/07/11 09:52:11;;;;;;;3.93;3.63;;;21.60;63.70;;;;;;5062979;28;20450;-48
2022/07/11 09:55:01;;;;;;;5.07;3.23;;;21.70;63.10;;;;;;5061916;28;20461;-48
2022/07/11 09:57:36;;;;;;;3.67;3.27;;;21.70;63.00;;;;;;5064293;28;20458;-48
2022/07/11 10:00:05;;;;;;;3.97;3.57;;;21.70;62.90;;;;;;5059818;28;20989;-48
2022/07/11 10:02:32;;;;;;;4.20;3.80;;;21.80;63.10;;;;;;5058247;28;20489;-48
2022/07/11 10:05:00;;;;;;;3.23;2.93;;;21.90;62.80;;;;;;5057527;28;20951;-48
2022/07/11 10:07:28;;;;;;;10.47;3.37;;;22.00;62.80;;;;;;5062190;28;20464;-47
2022/07/11 10:09:57;;;;;;;3.10;2.80;;;22.00;62.50;;;;;;5061317;28;20468;-47
2022/07/11 10:12:25;;;;;;;4.03;3.30;;;22.10;61.40;;;;;;5058406;28;20721;-47
2022/07/11 10:14:54;;;;;;;3.43;3.13;;;22.20;61.40;;;;;;5043021;28;20485;-47
2022/07/11 10:17:44;;;;;;;4.67;3.60;;;22.20;61.70;;;;;;5058979;28;20465;-48
2022/07/11 10:20:30;;;;;;;3.90;3.07;;;22.20;61.70;;;;;;5058070;28;20577;-48
2022/07/11 10:23:28;;;;;;;4.07;3.07;;;22.20;61.50;;;;;;5053115;28;20459;-48
2022/07/11 10:25:58;;;;;;;3.40;2.97;;;22.40;61.70;;;;;;5062878;28;20468;-48
2022/07/11 10:28:38;;;;;;;4.27;3.87;;;22.40;60.90;;;;;;5057187;28;20465;-46
2022/07/11 10:31:24;;;;;;;3.13;2.83;;;22.50;60.30;;;;;;5036690;28;21041;-46
2022/07/11 10:34:15;;;;;;;4.67;3.40;;;22.70;59.90;;;;;;5059630;28;20467;-45
2022/07/11 10:36:43;;;;;;;3.97;2.70;;;22.90;60.30;;;;;;5056240;28;21018;-46
2022/07/11 10:39:29;;;;;;;3.30;3.00;;;22.90;59.80;;;;;;5060090;28;20468;-46
2022/07/11 10:41:57;;;;;;;2.80;2.60;;;23.00;59.60;;;;;;5053554;28;20453;-46
2022/07/11 10:44:26;;;;;;;4.07;3.30;;;23.00;59.20;;;;;;5041798;28;20463;-46
2022/07/11 10:46:53;;;;;;;3.40;2.80;;;23.10;58.90;;;;;;5056751;28;20468;-46
2022/07/11 10:49:29;;;;;;;3.30;3.10;;;23.30;58.50;;;;;;5037506;28;20449;-46
2022/07/11 10:52:07;;;;;;;4.30;3.10;;;23.30;58.30;;;;;;5057162;28;20453;-46
2022/07/11 10:55:33;;;;;;;3.27;2.97;;;23.40;58.10;;;;;;5061098;28;21113;-46
2022/07/11 10:58:05;;;;;;;3.40;3.10;;;23.40;57.90;;;;;;4977603;28;20460;-47
2022/07/11 11:00:33;;;;;;;4.00;3.70;;;23.50;58.00;;;;;;4983772;28;20893;-45
2022/07/11 11:03:08;;;;;;;3.20;2.90;;;23.40;58.10;;;;;;5017599;28;20486;-46
2022/07/11 11:05:50;;;;;;;3.70;3.40;;;23.40;58.60;;;;;;5055649;28;21228;-46
2022/07/11 11:08:42;;;;;;;3.57;2.97;;;23.50;57.70;;;;;;5037891;28;21001;-46
2022/07/11 11:11:21;;;;;;;2.73;2.53;;;23.50;57.90;;;;;;5057471;28;20458;-46
2022/07/11 11:14:20;;;;;;;3.90;3.43;;;23.50;58.20;;;;;;5041822;28;20545;-47
2022/07/11 11:16:48;;;;;;;2.93;2.73;;;23.40;57.70;;;;;;5041919;28;20449;-47
2022/07/11 11:19:46;;;;;;;3.83;3.53;;;23.40;58.00;;;;;;5057141;28;20458;-47
2022/07/11 11:22:18;;;;;;;7.10;3.60;;;23.30;58.20;;;;;;5050678;28;20560;-47
2022/07/11 11:24:50;;;;;;;3.87;3.47;;;23.30;58.50;;;;;;5039100;28;20488;-47
2022/07/11 11:27:37;;;;;;;3.80;3.40;;;23.20;58.90;;;;;;5056487;28;20481;-47
2022/07/11 11:30:05;;;;;;;3.37;3.07;;;23.20;59.10;;;;;;5056055;28;20547;-47
2022/07/11 11:32:34;;;;;;;3.60;3.30;;;23.20;58.90;;;;;;5055524;28;20943;-47
2022/07/11 11:35:03;;;;;;;4.10;3.70;;;23.30;59.00;;;;;;5038461;28;20932;-47
2022/07/11 11:37:30;;;;;;;3.37;3.07;;;23.30;59.00;;;;;;5062647;28;20565;-48
2022/07/11 11:40:01;;;;;;;4.27;3.87;;;23.30;59.10;;;;;;5057459;28;20457;-48
2022/07/11 11:42:29;;;;;;;6.60;3.50;;;23.30;58.80;;;;;;5037536;28;20485;-49
2022/07/11 11:45:04;;;;;;;3.97;3.00;;;23.30;59.00;;;;;;5052022;28;20475;-48
2022/07/11 11:47:31;;;;;;;3.63;3.33;;;23.30;59.50;;;;;;5052702;28;20514;-49
2022/07/11 11:49:59;;;;;;;2.90;2.50;;;23.40;59.00;;;;;;5028464;28;20444;-49
2022/07/11 11:52:28;;;;;;;3.37;2.80;;;23.30;58.40;;;;;;5042539;28;21046;-47
2022/07/11 11:54:58;;;;;;;3.10;2.90;;;23.40;58.70;;;;;;5051995;28;20450;-47
2022/07/11 11:57:27;;;;;;;3.20;2.90;;;23.40;58.40;;;;;;5055908;28;20460;-47
2022/07/11 11:59:54;;;;;;;3.87;3.00;;;23.30;58.60;;;;;;5051136;28;20473;-47
2022/07/11 12:02:23;;;;;;;4.07;3.00;;;23.30;58.90;;;;;;5023642;28;20465;-47
2022/07/11 12:04:50;;;;;;;3.90;3.50;;;23.30;59.00;;;;;;5021841;28;20466;-47
2022/07/11 13:43:23;;;;;;;4.37;2.80;;;24.70;54.30;;;;;;5069821;28;20964;-47
2022/07/11 13:57:23;;;;;;;2.20;2.00;;;24.80;53.30;;;;;;5062397;28;20863;-48
2022/07/11 13:59:49;;;;;;;2.60;2.10;;;24.80;53.00;;;;;;5067800;28;20477;-47
2022/07/11 14:02:17;;;;;;;3.67;2.60;;;24.90;53.00;;;;;;5055414;28;20493;-48
2022/07/11 14:04:44;;;;;;;3.13;2.30;;;24.90;53.00;;;;;;5066396;28;20519;-48
2022/07/11 14:07:11;;;;;;;3.03;2.17;;;24.90;53.30;;;;;;5066244;28;20952;-48
2022/07/11 14:09:39;;;;;;;2.90;2.57;;;24.90;53.50;;;;;;5062382;28;20954;-48
2022/07/11 14:12:07;;;;;;;2.43;2.27;;;24.90;53.50;;;;;;5060042;28;20462;-47
2022/07/11 14:14:39;;;;;;;2.67;2.47;;;24.90;53.80;;;;;;5064729;28;20437;-49
2022/07/11 14:17:20;;;;;;;4.30;2.83;;;24.90;54.00;;;;;;5029680;28;20461;-47
2022/07/11 14:19:47;;;;;;;3.30;3.00;;;24.90;54.00;;;;;;5061829;28;20444;-47
2022/07/11 14:22:14;;;;;;;2.87;2.57;;;24.80;54.20;;;;;;5043287;28;20495;-47
2022/07/11 14:24:41;;;;;;;3.50;3.20;;;24.70;54.00;;;;;;5041303;28;20476;-47
2022/07/11 14:27:07;;;;;;;2.57;2.37;;;24.70;53.90;;;;;;5043812;28;20464;-47
2022/07/11 14:29:34;;;;;;;2.53;2.33;;;24.60;53.90;;;;;;5044645;28;20481;-47
2022/07/11 14:32:02;;;;;;;2.97;2.53;;;24.70;53.70;;;;;;5062508;28;20441;-47
2022/07/11 14:34:29;;;;;;;4.30;3.17;;;24.70;53.60;;;;;;5059985;28;20886;-47
2022/07/11 14:36:56;;;;;;;4.03;3.20;;;24.70;53.60;;;;;;5047905;28;20536;-47
2022/07/11 14:39:22;;;;;;;3.63;2.70;;;24.80;53.70;;;;;;5059281;28;20457;-47
2022/07/11 14:41:50;;;;;;;2.80;2.60;;;24.70;53.50;;;;;;5058547;28;21037;-47
2022/07/11 14:44:16;;;;;;;2.87;2.67;;;24.80;53.70;;;;;;5045811;28;20465;-47
2022/07/11 14:46:43;;;;;;;2.80;2.60;;;24.80;52.90;;;;;;5059784;28;20462;-47
2022/07/11 14:49:13;;;;;;;2.83;2.63;;;24.90;52.70;;;;;;5044903;28;20949;-47
2022/07/11 14:51:40;;;;;;;2.60;2.27;;;24.80;52.80;;;;;;5060558;28;20463;-47